createdAt,value
2018-11-03T00:01:15.136Z,4.30
2018-11-03T00:03:43.450Z,4.30
2018-11-03T00:06:11.737Z,4.20
2018-11-03T00:08:40.025Z,4.20
2018-11-03T00:11:08.350Z,4.20
2018-11-03T00:13:36.613Z,4.20
2018-11-03T00:16:05.415Z,4.20
2018-11-03T00:18:33.704Z,4.20
2018-11-03T00:21:02.027Z,4.10
2018-11-03T00:23:30.376Z,4.00
2018-11-03T00:25:58.679Z,4.00
2018-11-03T00:28:27.045Z,4.00
2018-11-03T00:30:55.322Z,4.10
2018-11-03T00:33:23.737Z,4.10
2018-11-03T00:35:52.044Z,4.10
2018-11-03T00:38:20.336Z,4.20
2018-11-03T00:40:48.711Z,4.20
2018-11-03T00:43:17.004Z,4.20
2018-11-03T00:45:45.417Z,4.20
2018-11-03T00:48:13.700Z,4.10
2018-11-03T00:50:42.081Z,4.10
2018-11-03T00:53:10.390Z,4.10
2018-11-03T00:55:38.691Z,4.10
2018-11-03T00:58:07.090Z,4.00
2018-11-03T01:00:35.388Z,4.00
2018-11-03T01:03:03.809Z,3.90
2018-11-03T01:05:32.099Z,4.00
2018-11-03T01:08:00.364Z,3.90
2018-11-03T01:10:28.671Z,3.90
2018-11-03T01:12:56.953Z,3.90
2018-11-03T01:15:25.352Z,3.80
2018-11-03T01:17:53.637Z,3.80
2018-11-03T01:20:21.983Z,3.80
2018-11-03T01:22:50.292Z,3.80
2018-11-03T01:25:18.596Z,3.70
2018-11-03T01:27:46.887Z,3.70
2018-11-03T01:30:16.295Z,3.70
2018-11-03T01:32:44.762Z,3.70
2018-11-03T01:35:13.029Z,3.70
2018-11-03T01:37:41.314Z,3.70
2018-11-03T01:40:11.149Z,3.70
2018-11-03T01:42:39.632Z,3.70
2018-11-03T01:45:08.040Z,3.70
2018-11-03T01:47:36.618Z,3.60
2018-11-03T01:50:06.909Z,3.60
2018-11-03T01:52:36.039Z,3.60
2018-11-03T01:55:04.825Z,3.60
2018-11-03T01:57:33.127Z,3.60
2018-11-03T02:00:01.433Z,3.50
2018-11-03T02:02:29.954Z,3.50
2018-11-03T02:04:58.339Z,3.50
2018-11-03T02:07:26.685Z,3.50
2018-11-03T02:09:54.991Z,3.40
2018-11-03T02:12:23.395Z,3.40
2018-11-03T02:14:51.748Z,3.30
2018-11-03T02:17:20.170Z,3.30
2018-11-03T02:19:48.463Z,3.20
2018-11-03T02:22:16.786Z,3.20
2018-11-03T02:24:45.135Z,3.20
2018-11-03T02:27:13.442Z,3.10
2018-11-03T02:29:41.821Z,3.10
2018-11-03T02:32:10.112Z,3.10
2018-11-03T02:34:38.555Z,3.10
2018-11-03T02:37:06.851Z,3.10
2018-11-03T02:39:35.151Z,3.10
2018-11-03T02:42:03.535Z,3.00
2018-11-03T02:44:31.818Z,3.00
2018-11-03T02:47:00.219Z,3.00
2018-11-03T02:49:28.514Z,3.00
2018-11-03T02:51:56.950Z,3.00
2018-11-03T02:54:25.284Z,2.90
2018-11-03T02:56:53.629Z,2.90
2018-11-03T02:59:21.962Z,2.90
2018-11-03T03:01:50.274Z,2.90
2018-11-03T03:04:18.603Z,2.90
2018-11-03T03:06:46.895Z,2.80
2018-11-03T03:09:15.190Z,2.80
2018-11-03T03:11:43.488Z,2.70
2018-11-03T03:14:11.757Z,2.70
2018-11-03T03:16:40.151Z,2.60
2018-11-03T03:19:08.452Z,2.70
2018-11-03T03:21:37.356Z,2.70
2018-11-03T03:24:05.670Z,2.60
2018-11-03T03:26:33.948Z,2.70
2018-11-03T03:29:02.380Z,2.70
2018-11-03T03:31:30.650Z,2.70
2018-11-03T03:33:59.060Z,2.70
2018-11-03T03:36:27.375Z,2.70
2018-11-03T03:38:55.724Z,2.70
2018-11-03T03:41:24.135Z,2.70
2018-11-03T03:43:52.373Z,2.70
2018-11-03T03:46:20.736Z,2.60
2018-11-03T03:48:48.997Z,2.60
2018-11-03T03:51:17.391Z,2.60
2018-11-03T03:53:45.682Z,2.60
2018-11-03T03:56:14.000Z,2.60
2018-11-03T03:58:42.276Z,2.50
2018-11-03T04:01:10.576Z,2.50
2018-11-03T04:03:38.997Z,2.50
2018-11-03T04:06:07.252Z,2.50
2018-11-03T04:08:35.653Z,2.50
2018-11-03T04:11:04.325Z,2.50
2018-11-03T04:13:32.600Z,2.60
2018-11-03T04:16:00.933Z,2.60
2018-11-03T04:18:29.247Z,2.50
2018-11-03T04:20:57.618Z,2.50
2018-11-03T04:23:26.423Z,2.50
2018-11-03T04:25:54.765Z,2.50
2018-11-03T04:28:23.044Z,2.40
2018-11-03T04:30:51.385Z,2.40
2018-11-03T04:33:19.712Z,2.40
2018-11-03T04:35:47.987Z,2.40
2018-11-03T04:38:16.248Z,2.40
2018-11-03T04:40:44.523Z,2.40
2018-11-03T04:43:12.795Z,2.40
2018-11-03T04:45:41.082Z,2.40
2018-11-03T04:48:09.351Z,2.30
2018-11-03T04:50:37.632Z,2.30
2018-11-03T04:53:05.963Z,2.30
2018-11-03T04:55:34.254Z,2.30
2018-11-03T04:58:02.559Z,2.30
2018-11-03T05:00:30.829Z,2.30
2018-11-03T05:02:59.112Z,2.20
2018-11-03T05:05:27.425Z,2.20
2018-11-03T05:07:55.674Z,2.20
2018-11-03T05:10:23.980Z,2.20
2018-11-03T05:12:52.246Z,2.20
2018-11-03T05:15:20.524Z,2.20
2018-11-03T05:17:48.855Z,2.10
2018-11-03T05:20:17.151Z,2.10
2018-11-03T05:22:45.436Z,2.00
2018-11-03T05:25:13.754Z,2.00
2018-11-03T05:27:42.047Z,2.00
2018-11-03T05:30:10.325Z,2.00
2018-11-03T05:32:38.621Z,2.00
2018-11-03T05:35:06.961Z,1.90
2018-11-03T05:37:35.235Z,1.90
2018-11-03T05:40:03.649Z,1.90
2018-11-03T05:42:31.985Z,1.80
2018-11-03T05:45:00.292Z,1.90
2018-11-03T05:47:28.616Z,1.80
2018-11-03T05:49:56.901Z,1.70
2018-11-03T05:52:25.199Z,1.70
2018-11-03T05:54:53.464Z,1.70
2018-11-03T05:57:21.752Z,1.70
2018-11-03T05:59:50.123Z,1.70
2018-11-03T06:02:18.333Z,1.70
2018-11-03T06:04:46.616Z,1.70
2018-11-03T06:07:14.928Z,1.70
2018-11-03T06:09:43.256Z,1.70
2018-11-03T06:12:11.525Z,1.70
2018-11-03T06:14:39.806Z,1.70
2018-11-03T06:17:08.089Z,1.70
2018-11-03T06:19:36.394Z,1.70
2018-11-03T06:22:04.868Z,1.70
2018-11-03T06:24:33.139Z,1.80
2018-11-03T06:27:01.460Z,1.80
2018-11-03T06:29:29.748Z,1.80
2018-11-03T06:31:58.007Z,1.80
2018-11-03T06:34:26.304Z,1.80
2018-11-03T06:36:54.571Z,1.80
2018-11-03T06:39:22.908Z,1.70
2018-11-03T06:41:51.217Z,1.80
2018-11-03T06:44:19.517Z,1.80
2018-11-03T06:46:47.912Z,1.90
2018-11-03T06:49:21.200Z,1.90
2018-11-03T06:51:50.679Z,2.00
2018-11-03T06:54:19.011Z,1.90
2018-11-03T06:56:47.284Z,2.00
2018-11-03T06:59:16.332Z,2.10
2018-11-03T07:01:44.647Z,2.10
2018-11-03T07:04:13.017Z,2.20
2018-11-03T07:06:41.306Z,2.20
2018-11-03T07:09:11.296Z,2.20
2018-11-03T07:11:40.034Z,2.30
2018-11-03T07:14:09.242Z,2.30
2018-11-03T07:16:37.696Z,2.30
2018-11-03T07:19:06.264Z,2.40
2018-11-03T07:21:34.881Z,2.50
2018-11-03T07:24:03.264Z,2.50
2018-11-03T07:26:31.579Z,2.60
2018-11-03T07:28:59.864Z,2.70
2018-11-03T07:31:28.171Z,2.80
2018-11-03T07:33:56.504Z,2.90
2018-11-03T07:36:24.790Z,3.00
2018-11-03T07:38:53.075Z,3.10
2018-11-03T07:41:21.571Z,3.20
2018-11-03T07:43:49.838Z,3.20
2018-11-03T07:46:18.129Z,3.30
2018-11-03T07:48:46.513Z,3.40
2018-11-03T07:51:14.845Z,3.40
2018-11-03T07:53:43.147Z,3.50
2018-11-03T07:56:11.423Z,3.50
2018-11-03T07:58:39.731Z,3.60
2018-11-03T08:01:08.045Z,3.60
2018-11-03T08:03:36.399Z,3.70
2018-11-03T08:06:04.776Z,3.70
2018-11-03T08:08:33.066Z,3.70
2018-11-03T08:11:01.683Z,3.80
2018-11-03T08:13:29.948Z,3.90
2018-11-03T08:15:58.397Z,3.90
2018-11-03T08:18:26.672Z,4.00
2018-11-03T08:20:54.978Z,4.00
2018-11-03T08:23:23.238Z,4.10
2018-11-03T08:25:51.539Z,4.10
2018-11-03T08:28:19.861Z,4.20
2018-11-03T08:30:48.165Z,4.20
2018-11-03T08:33:16.436Z,4.30
2018-11-03T08:35:44.771Z,4.30
2018-11-03T08:38:14.339Z,4.40
2018-11-03T08:40:42.624Z,4.30
2018-11-03T08:43:10.917Z,4.40
2018-11-03T08:45:39.227Z,4.40
2018-11-03T08:48:07.512Z,4.40
2018-11-03T08:50:35.801Z,4.50
2018-11-03T08:53:04.304Z,4.50
2018-11-03T08:55:32.564Z,4.60
2018-11-03T08:58:00.842Z,4.60
2018-11-03T09:00:29.163Z,4.70
2018-11-03T09:02:57.494Z,4.80
2018-11-03T09:05:25.735Z,4.80
2018-11-03T09:07:54.034Z,4.80
2018-11-03T09:10:22.333Z,4.90
2018-11-03T09:12:50.627Z,4.90
2018-11-03T09:15:19.077Z,5.00
2018-11-03T09:17:47.176Z,5.10
2018-11-03T09:20:15.474Z,5.20
2018-11-03T09:22:43.896Z,5.30
2018-11-03T09:25:13.450Z,5.40
2018-11-03T09:27:42.676Z,5.50
2018-11-03T09:30:16.403Z,5.60
2018-11-03T09:32:44.715Z,5.70
2018-11-03T09:35:14.034Z,5.80
2018-11-03T09:37:44.431Z,5.80
2018-11-03T09:40:14.193Z,5.90
2018-11-03T09:42:43.608Z,5.90
2018-11-03T09:45:12.388Z,6.00
2018-11-03T09:47:41.257Z,6.10
2018-11-03T09:50:10.942Z,6.10
2018-11-03T09:52:39.663Z,6.20
2018-11-03T09:55:10.095Z,6.30
2018-11-03T09:57:38.398Z,6.40
2018-11-03T10:00:09.318Z,6.30
2018-11-03T10:02:37.977Z,6.30
2018-11-03T10:05:06.963Z,6.40
2018-11-03T10:07:35.281Z,6.50
2018-11-03T10:10:03.638Z,6.50
2018-11-03T10:12:32.112Z,6.60
2018-11-03T10:15:00.388Z,6.70
2018-11-03T10:17:28.685Z,6.70
2018-11-03T10:19:56.984Z,6.80
2018-11-03T10:22:25.781Z,7.00
2018-11-03T10:24:54.066Z,7.10
2018-11-03T10:27:22.356Z,7.20
2018-11-03T10:29:50.655Z,7.30
2018-11-03T10:32:18.936Z,7.40
2018-11-03T10:34:47.279Z,7.50
2018-11-03T10:37:15.782Z,7.50
2018-11-03T10:39:44.081Z,7.70
2018-11-03T10:42:12.417Z,7.80
2018-11-03T10:44:40.707Z,7.90
2018-11-03T10:47:09.048Z,8.20
2018-11-03T10:49:41.598Z,8.40
2018-11-03T10:52:10.086Z,8.60
2018-11-03T10:54:38.632Z,8.80
2018-11-03T10:57:07.446Z,8.90
2018-11-03T10:59:35.770Z,9.20
2018-11-03T11:02:09.347Z,9.50
2018-11-03T11:04:43.210Z,9.90
2018-11-03T11:07:17.727Z,10.60
2018-11-03T11:09:51.566Z,11.30
2018-11-03T11:12:25.385Z,12.30
2018-11-03T11:14:53.681Z,13.10
2018-11-03T11:17:22.019Z,13.90
2018-11-03T11:19:50.313Z,13.60
2018-11-03T11:22:18.572Z,13.60
2018-11-03T11:24:47.175Z,14.00
2018-11-03T11:27:15.278Z,14.50
2018-11-03T11:29:43.556Z,14.40
2018-11-03T11:32:11.878Z,14.90
2018-11-03T11:34:40.197Z,15.30
2018-11-03T11:37:08.462Z,15.50
2018-11-03T11:39:36.810Z,15.90
2018-11-03T11:42:05.237Z,16.20
2018-11-03T11:44:32.831Z,16.20
2018-11-03T11:47:01.200Z,16.50
2018-11-03T11:49:29.534Z,16.50
2018-11-03T11:51:57.828Z,16.30
2018-11-03T11:54:26.134Z,16.70
2018-11-03T11:56:54.434Z,17.10
2018-11-03T11:59:22.706Z,17.40
2018-11-03T12:01:51.098Z,18.10
2018-11-03T12:04:19.400Z,18.50
2018-11-03T12:06:47.702Z,19.10
2018-11-03T12:09:16.018Z,18.90
2018-11-03T12:11:44.288Z,19.10
2018-11-03T12:14:12.595Z,19.10
2018-11-03T12:16:40.902Z,19.10
2018-11-03T12:19:09.165Z,19.40
2018-11-03T12:21:37.448Z,19.20
2018-11-03T12:24:06.045Z,19.30
2018-11-03T12:26:34.347Z,19.70
2018-11-03T12:29:02.608Z,20.20
2018-11-03T12:31:30.872Z,20.40
2018-11-03T12:33:59.176Z,20.40
2018-11-03T12:36:27.489Z,20.40
2018-11-03T12:38:55.763Z,20.40
2018-11-03T12:41:24.234Z,20.40
2018-11-03T12:43:52.562Z,20.70
2018-11-03T12:46:20.856Z,21.20
2018-11-03T12:48:49.173Z,21.60
2018-11-03T12:51:17.424Z,21.80
2018-11-03T12:53:45.720Z,21.80
2018-11-03T12:56:14.037Z,22.20
2018-11-03T12:58:42.308Z,22.20
2018-11-03T13:01:10.617Z,22.10
2018-11-03T13:03:38.914Z,22.10
2018-11-03T13:06:07.239Z,22.20
2018-11-03T13:08:35.547Z,22.60
2018-11-03T13:11:03.936Z,23.10
2018-11-03T13:13:32.185Z,23.20
2018-11-03T13:16:00.472Z,23.60
2018-11-03T13:18:28.818Z,23.90
2018-11-03T13:20:57.110Z,23.90
2018-11-03T13:23:25.425Z,24.10
2018-11-03T13:25:53.755Z,24.20
2018-11-03T13:28:22.074Z,24.20
2018-11-03T13:30:50.372Z,24.40
2018-11-03T13:33:18.663Z,24.50
2018-11-03T13:35:46.929Z,24.70
2018-11-03T13:38:14.512Z,25.00
2018-11-03T13:40:42.061Z,25.40
2018-11-03T13:43:09.629Z,25.40
2018-11-03T13:45:37.250Z,25.70
2018-11-03T13:48:05.097Z,25.90
2018-11-03T13:50:32.694Z,26.20
2018-11-03T13:53:00.266Z,26.30
2018-11-03T13:55:27.849Z,26.50
2018-11-03T13:57:55.414Z,26.60
2018-11-03T14:00:23.004Z,26.70
2018-11-03T14:02:50.569Z,26.80
2018-11-03T14:05:18.151Z,26.70
2018-11-03T14:07:45.750Z,26.10
2018-11-03T14:10:15.377Z,26.10
2018-11-03T14:12:43.750Z,26.30
2018-11-03T14:15:12.862Z,26.30
2018-11-03T14:17:40.407Z,26.20
2018-11-03T14:20:09.095Z,26.20
2018-11-03T14:22:36.673Z,26.10
2018-11-03T14:25:04.349Z,26.00
2018-11-03T14:27:31.998Z,26.10
2018-11-03T14:29:59.605Z,26.10
2018-11-03T14:32:27.170Z,26.00
2018-11-03T14:34:54.734Z,25.90
2018-11-03T14:37:22.362Z,25.60
2018-11-03T14:39:49.931Z,25.40
2018-11-03T14:42:17.506Z,25.00
2018-11-03T14:44:45.785Z,24.30
2018-11-03T14:47:14.781Z,23.70
2018-11-03T14:49:43.038Z,23.00
2018-11-03T14:52:11.413Z,22.40
2018-11-03T14:54:39.664Z,21.90
2018-11-03T14:57:07.936Z,21.20
2018-11-03T14:59:35.491Z,20.70
2018-11-03T15:02:03.853Z,20.20
2018-11-03T15:04:32.120Z,19.50
2018-11-03T15:07:00.348Z,19.10
2018-11-03T15:09:28.623Z,18.80
2018-11-03T15:11:56.896Z,18.40
2018-11-03T15:14:25.353Z,18.10
2018-11-03T15:16:53.501Z,17.70
2018-11-03T15:19:21.751Z,17.30
2018-11-03T15:21:50.040Z,16.80
2018-11-03T15:24:18.501Z,16.30
2018-11-03T15:26:46.043Z,15.80
2018-11-03T15:29:13.628Z,15.40
2018-11-03T15:31:41.179Z,14.90
2018-11-03T15:34:08.866Z,14.50
2018-11-03T15:36:36.411Z,14.20
2018-11-03T15:39:04.661Z,13.90
2018-11-03T15:41:32.256Z,13.60
2018-11-03T15:43:59.911Z,13.40
2018-11-03T15:46:27.492Z,13.10
2018-11-03T15:48:55.177Z,12.90
2018-11-03T15:51:22.719Z,12.70
2018-11-03T15:53:50.361Z,12.50
2018-11-03T15:56:17.945Z,12.30
2018-11-03T15:58:45.561Z,12.10
2018-11-03T16:01:13.129Z,11.90
2018-11-03T16:03:40.695Z,11.70
2018-11-03T16:06:08.273Z,11.60
2018-11-03T16:08:35.851Z,11.40
2018-11-03T16:11:03.483Z,11.20
2018-11-03T16:13:31.102Z,11.10
2018-11-03T16:15:58.676Z,10.90
2018-11-03T16:18:26.251Z,10.80
2018-11-03T16:20:53.868Z,10.60
2018-11-03T16:23:22.136Z,10.50
2018-11-03T16:25:50.445Z,10.40
2018-11-03T16:28:18.917Z,10.30
2018-11-03T16:30:47.278Z,10.20
2018-11-03T16:33:15.680Z,10.10
2018-11-03T16:35:44.056Z,10.00
2018-11-03T16:38:12.297Z,10.00
2018-11-03T16:40:40.578Z,9.90
2018-11-03T16:43:08.903Z,9.80
2018-11-03T16:45:37.327Z,9.80
2018-11-03T16:48:06.633Z,9.70
2018-11-03T16:50:34.947Z,9.60
2018-11-03T16:53:03.238Z,9.60
2018-11-03T16:55:31.590Z,9.70
2018-11-03T16:57:59.981Z,9.80
2018-11-03T17:00:28.311Z,9.80
2018-11-03T17:02:56.684Z,9.80
2018-11-03T17:05:24.959Z,9.70
2018-11-03T17:07:53.237Z,9.70
2018-11-03T17:10:21.641Z,9.70
2018-11-03T17:12:49.999Z,9.70
2018-11-03T17:15:18.299Z,9.70
2018-11-03T17:17:46.638Z,9.70
2018-11-03T17:20:15.024Z,9.60
2018-11-03T17:22:43.352Z,9.60
2018-11-03T17:25:12.447Z,9.60
2018-11-03T17:27:40.794Z,9.50
2018-11-03T17:30:10.955Z,9.40
2018-11-03T17:32:39.226Z,9.20
2018-11-03T17:35:07.608Z,9.10
2018-11-03T17:37:35.921Z,9.00
2018-11-03T17:40:04.560Z,8.80
2018-11-03T17:42:32.873Z,8.70
2018-11-03T17:45:01.176Z,8.60
2018-11-03T17:47:29.443Z,8.50
2018-11-03T17:49:57.770Z,8.40
2018-11-03T17:52:26.720Z,8.30
2018-11-03T17:54:55.166Z,8.30
2018-11-03T17:57:23.368Z,8.20
2018-11-03T17:59:52.208Z,8.20
2018-11-03T18:02:20.522Z,8.10
2018-11-03T18:04:48.802Z,8.10
2018-11-03T18:07:17.094Z,8.00
2018-11-03T18:09:45.417Z,7.90
2018-11-03T18:12:14.000Z,7.90
2018-11-03T18:14:42.251Z,7.90
2018-11-03T18:17:10.570Z,7.80
2018-11-03T18:19:38.864Z,7.80
2018-11-03T18:22:07.150Z,7.70
2018-11-03T18:24:35.442Z,7.70
2018-11-03T18:27:03.877Z,7.80
2018-11-03T18:29:32.206Z,7.90
2018-11-03T18:32:01.349Z,8.00
2018-11-03T18:34:29.647Z,8.00
2018-11-03T18:36:57.960Z,8.10
2018-11-03T18:39:26.321Z,8.10
2018-11-03T18:41:54.630Z,8.10
2018-11-03T18:44:22.913Z,8.00
2018-11-03T18:46:51.345Z,8.00
2018-11-03T18:49:19.529Z,8.00
2018-11-03T18:51:47.883Z,8.00
2018-11-03T18:54:16.145Z,8.00
2018-11-03T18:56:44.446Z,7.90
2018-11-03T18:59:12.798Z,7.90
2018-11-03T19:01:41.071Z,7.90
2018-11-03T19:04:09.395Z,7.80
2018-11-03T19:06:37.684Z,7.80
2018-11-03T19:09:07.304Z,7.70
2018-11-03T19:11:35.592Z,7.60
2018-11-03T19:14:03.914Z,7.60
2018-11-03T19:16:32.662Z,7.60
2018-11-03T19:19:00.951Z,7.50
2018-11-03T19:21:29.225Z,7.50
2018-11-03T19:23:57.552Z,7.50
2018-11-03T19:26:25.848Z,7.40
2018-11-03T19:28:54.143Z,7.40
2018-11-03T19:31:22.441Z,7.30
2018-11-03T19:33:50.673Z,7.30
2018-11-03T19:36:18.973Z,7.30
2018-11-03T19:38:47.224Z,7.30
2018-11-03T19:41:15.520Z,7.20
2018-11-03T19:43:43.817Z,7.20
2018-11-03T19:46:12.084Z,7.10
2018-11-03T19:48:40.342Z,7.10
2018-11-03T19:51:08.675Z,7.00
2018-11-03T19:53:36.948Z,7.00
2018-11-03T19:56:05.629Z,7.00
2018-11-03T19:58:33.904Z,6.90
2018-11-03T20:01:02.264Z,6.90
2018-11-03T20:03:30.562Z,6.90
2018-11-03T20:05:58.832Z,6.80
2018-11-03T20:08:27.116Z,6.80
2018-11-03T20:10:55.412Z,6.80
2018-11-03T20:13:23.723Z,6.70
2018-11-03T20:15:51.994Z,6.70
2018-11-03T20:18:20.285Z,6.70
2018-11-03T20:20:48.607Z,6.70
2018-11-03T20:23:16.917Z,6.70
2018-11-03T20:25:45.255Z,6.70
2018-11-03T20:28:13.551Z,6.60
2018-11-03T20:30:41.813Z,6.60
2018-11-03T20:33:10.107Z,6.60
2018-11-03T20:35:38.384Z,6.60
2018-11-03T20:38:06.859Z,6.50
2018-11-03T20:40:35.135Z,6.50
2018-11-03T20:43:03.440Z,6.50
2018-11-03T20:45:31.740Z,6.50
2018-11-03T20:48:00.033Z,6.40
2018-11-03T20:50:28.345Z,6.40
2018-11-03T20:52:56.618Z,6.40
2018-11-03T20:55:24.899Z,6.40
2018-11-03T20:57:53.192Z,6.30
2018-11-03T21:00:21.457Z,6.30
2018-11-03T21:02:49.760Z,6.30
2018-11-03T21:05:18.070Z,6.20
2018-11-03T21:07:46.335Z,6.00
2018-11-03T21:10:14.589Z,5.90
2018-11-03T21:12:42.838Z,5.70
2018-11-03T21:15:11.135Z,5.60
2018-11-03T21:17:39.439Z,5.50
2018-11-03T21:20:08.246Z,5.40
2018-11-03T21:22:36.529Z,5.40
2018-11-03T21:25:05.215Z,5.30
2018-11-03T21:27:33.456Z,5.30
2018-11-03T21:30:01.756Z,5.20
2018-11-03T21:32:30.050Z,5.10
2018-11-03T21:34:58.325Z,5.00
2018-11-03T21:37:26.577Z,5.00
2018-11-03T21:39:55.096Z,5.00
2018-11-03T21:42:23.396Z,4.80
2018-11-03T21:44:51.696Z,4.80
2018-11-03T21:47:19.980Z,4.80
2018-11-03T21:49:48.355Z,4.80
2018-11-03T21:52:16.678Z,4.70
2018-11-03T21:54:44.910Z,4.60
2018-11-03T21:57:13.173Z,4.60
2018-11-03T21:59:41.444Z,4.60
2018-11-03T22:02:09.725Z,4.50
2018-11-03T22:04:38.013Z,4.50
2018-11-03T22:07:06.434Z,4.50
2018-11-03T22:09:34.736Z,4.40
2018-11-03T22:12:03.017Z,4.40
2018-11-03T22:14:31.350Z,4.40
2018-11-03T22:16:59.624Z,4.40
2018-11-03T22:19:28.748Z,4.30
2018-11-03T22:21:57.060Z,4.30
2018-11-03T22:24:25.324Z,4.30
2018-11-03T22:26:53.624Z,4.20
2018-11-03T22:29:21.913Z,4.20
2018-11-03T22:31:50.182Z,4.20
2018-11-03T22:34:18.455Z,4.10
2018-11-03T22:36:46.726Z,4.10
2018-11-03T22:39:15.003Z,4.10
2018-11-03T22:41:43.301Z,4.00
2018-11-03T22:44:11.568Z,4.00
2018-11-03T22:46:42.820Z,3.90
2018-11-03T22:49:11.156Z,3.90
2018-11-03T22:51:39.472Z,3.90
2018-11-03T22:54:07.705Z,3.80
2018-11-03T22:56:35.972Z,3.80
2018-11-03T22:59:04.334Z,3.70
2018-11-03T23:01:32.767Z,3.70
2018-11-03T23:04:01.069Z,3.70
2018-11-03T23:06:29.331Z,3.70
2018-11-03T23:08:57.564Z,3.60
2018-11-03T23:11:25.869Z,3.60
2018-11-03T23:13:54.159Z,3.60
2018-11-03T23:16:22.405Z,3.60
2018-11-03T23:18:50.722Z,3.50
2018-11-03T23:21:18.988Z,3.50
2018-11-03T23:23:47.265Z,3.50
2018-11-03T23:26:15.580Z,3.40
2018-11-03T23:28:43.838Z,3.40
2018-11-03T23:31:12.131Z,3.40
2018-11-03T23:33:40.790Z,3.40
2018-11-03T23:36:09.071Z,3.40
2018-11-03T23:38:37.328Z,3.30
2018-11-03T23:41:05.828Z,3.30
2018-11-03T23:43:34.089Z,3.30
2018-11-03T23:46:02.357Z,3.30
2018-11-03T23:48:30.612Z,3.20
2018-11-03T23:50:58.893Z,3.20
2018-11-03T23:53:27.250Z,3.20
2018-11-03T23:55:55.481Z,3.20
2018-11-03T23:58:23.755Z,3.20
